Smhi, Sweden

8:40 AM CEST on September 23, 2014 (GMT +0200)
Kaffebacken | Change Station
CLOSE
Current Station
Personal Weather Station
Location: Norrkoeping, OSTERGOTLAND
Elevation: 144 ft
Nearby Weather Stations

Elev 144 ft 58.58 °N, 16.18 °E | Updated 6 minutes ago

Clear
Clear
44.7 °F
Feels Like 45 °F
N
1.0
Wind Variable Wind from SSW
Gusts 4.0 mph

Today
High -- | Low -- °F
--% Chance of Precip.
Yesterday
High -- | Low -- °F
Precip. -- in
6:41 AM 6:52 PM
Waning Crescent, 1% visible
Pressure 29.98 in
Visibility -9999.0 miles
Clouds
Windchill 45 °F
Dew Point 37 °F
Humidity 75%
Rainfall 0.00 in
Snow Depth Not available.
UV Not available.
Pollen Not available.
Air Quality Not available.
Flu Activity Not available.
METAR ESSP 230620Z 33008KT CAVOK 04/01 Q1015

More Conditions Fewer Conditions

Pressure 29.98 in
Visibility -9999.0 miles
Clouds
Windchill 45 °F
Dew Point 37 °F
Humidity 75%
Rainfall 0.00 in
Snow Depth Not available.
UV Not available.
Pollen Not available.
Air Quality Not available.
Flu Activity Not available.
METAR ESSP 230620Z 33008KT CAVOK 04/01 Q1015

More Conditions Fewer Conditions

10-Day Weather Forecast

Almanac

Astronomy

Sep. 23, 2014 Rise Set
Actual Time 6:41 AM CEST 6:52 PM CEST
Civil Twilight 6:01 AM CEST 7:32 PM CEST
Nautical Twilight 5:14 AM CEST 8:19 PM CEST
Astronomical Twilight 4:22 AM CEST 9:10 PM CEST
Moon 5:44 AM CEST 6:21 PM CEST
Length of Visible Light 13h 30m
Length of Day
12h 10m
Tomorrow will be 5m 6s shorter.
Waning Crescent, 1% of the Moon is Illuminated
Today
Waning Crescent
Sep 24
New
Oct 1
First Quarter
Oct 8
Full
Oct 15
Last Quarter

Yesterday's Extremes

Country Highs Country Lows

Community

WunderPhotos

Upload Photos

1,755,608 photos uploaded!

Nearby

Snow Depth

Not available.

Earthquake Activity

City Distance Mag. Time & Date
No recent earthquake activity has been reported nearby.
Minimum magnitude displayed is 2.5.

Coastal Water Temperatures

Place Temperature
No Stations Reporting

Nearby Weather Stations